createdAt,value
2023-04-11T00:00:47.045Z,0.00
2023-04-11T00:01:47.114Z,0.00
2023-04-11T00:02:47.281Z,0.00
2023-04-11T00:03:47.270Z,0.00
2023-04-11T00:04:47.181Z,0.00
2023-04-11T00:05:47.118Z,0.00
2023-04-11T00:06:47.134Z,0.00
2023-04-11T00:07:47.148Z,0.00
2023-04-11T00:08:47.168Z,0.00
2023-04-11T00:09:47.178Z,0.00
2023-04-11T00:10:47.189Z,0.00
2023-04-11T00:11:47.209Z,0.00
2023-04-11T00:12:47.235Z,0.00
2023-04-11T00:13:47.234Z,0.00
2023-04-11T00:14:47.256Z,0.00
2023-04-11T00:15:47.265Z,0.00
2023-04-11T00:16:47.314Z,0.00
2023-04-11T00:17:47.360Z,0.00
2023-04-11T00:18:47.315Z,0.00
2023-04-11T00:19:47.327Z,0.00
2023-04-11T00:20:47.379Z,0.00
2023-04-11T00:21:47.375Z,0.00
2023-04-11T00:22:47.402Z,0.00
2023-04-11T00:23:47.381Z,0.00
2023-04-11T00:24:47.403Z,0.00
2023-04-11T00:25:47.417Z,0.00
2023-04-11T00:26:47.457Z,0.00
2023-04-11T00:27:47.443Z,0.00
2023-04-11T00:28:47.458Z,0.00
2023-04-11T00:29:47.474Z,0.00
2023-04-11T00:30:47.491Z,0.00
2023-04-11T00:31:47.556Z,0.00
2023-04-11T00:32:47.566Z,0.00
2023-04-11T00:33:47.551Z,0.00
2023-04-11T00:34:47.560Z,0.00
2023-04-11T00:35:47.621Z,0.00
2023-04-11T00:36:47.612Z,0.00
2023-04-11T00:37:47.593Z,0.00
2023-04-11T00:38:47.610Z,0.00
2023-04-11T00:39:47.622Z,0.00
2023-04-11T00:40:47.639Z,0.00
2023-04-11T00:41:47.669Z,0.00
2023-04-11T00:42:47.663Z,0.00
2023-04-11T00:43:47.676Z,0.00
2023-04-11T00:44:47.690Z,0.00
2023-04-11T00:45:47.725Z,0.00
2023-04-11T00:46:47.735Z,0.00
2023-04-11T00:47:47.798Z,0.00
2023-04-11T00:48:47.753Z,0.00
2023-04-11T00:49:47.768Z,0.00
2023-04-11T00:50:47.785Z,0.00
2023-04-11T00:51:47.793Z,0.00
2023-04-11T00:52:47.813Z,0.00
2023-04-11T00:53:47.828Z,0.00
2023-04-11T00:54:47.841Z,0.00
2023-04-11T00:55:47.859Z,0.00
2023-04-11T00:56:47.871Z,0.00
2023-04-11T00:57:47.884Z,0.00
2023-04-11T00:58:47.906Z,0.00
2023-04-11T00:59:47.914Z,0.00
2023-04-11T01:00:47.966Z,0.00
2023-04-11T01:01:47.993Z,0.00
2023-04-11T01:02:48.025Z,0.00
2023-04-11T01:03:48.064Z,0.00
2023-04-11T01:04:48.005Z,0.00
2023-04-11T01:05:48.005Z,0.00
2023-04-11T01:06:48.020Z,0.00
2023-04-11T01:07:48.033Z,0.00
2023-04-11T01:08:48.055Z,0.00
2023-04-11T01:09:48.064Z,0.00
2023-04-11T01:10:48.087Z,0.00
2023-04-11T01:11:48.096Z,0.00
2023-04-11T01:12:48.116Z,0.00
2023-04-11T01:13:48.121Z,0.00
2023-04-11T01:14:48.156Z,0.00
2023-04-11T01:15:48.160Z,0.00
2023-04-11T01:16:48.248Z,0.00
2023-04-11T01:17:48.312Z,0.00
2023-04-11T01:18:48.196Z,0.00
2023-04-11T01:19:48.210Z,0.00
2023-04-11T01:20:48.228Z,0.00
2023-04-11T01:21:48.244Z,0.00
2023-04-11T01:22:48.255Z,0.00
2023-04-11T01:23:48.270Z,0.00
2023-04-11T01:24:48.287Z,0.00
2023-04-11T01:25:48.297Z,0.00
2023-04-11T01:26:48.319Z,0.00
2023-04-11T01:27:48.326Z,0.00
2023-04-11T01:28:48.349Z,0.00
2023-04-11T01:29:48.359Z,0.00
2023-04-11T01:30:48.387Z,0.00
2023-04-11T01:31:48.388Z,0.00
2023-04-11T01:32:48.426Z,0.00
2023-04-11T01:33:48.417Z,0.00
2023-04-11T01:34:48.433Z,0.00
2023-04-11T01:35:48.454Z,0.00
2023-04-11T01:36:48.456Z,0.00
2023-04-11T01:37:48.474Z,0.00
2023-04-11T01:38:48.488Z,0.00
2023-04-11T01:39:48.505Z,0.00
2023-04-11T01:40:48.524Z,0.00
2023-04-11T01:41:48.530Z,0.00
2023-04-11T01:42:48.548Z,0.00
2023-04-11T01:43:48.558Z,0.00
2023-04-11T01:44:48.574Z,0.00
2023-04-11T01:45:48.591Z,0.00
2023-04-11T01:46:48.617Z,0.00
2023-04-11T01:47:50.717Z,0.00
2023-04-11T01:48:48.682Z,0.00
2023-04-11T01:49:48.652Z,0.00
2023-04-11T01:50:48.659Z,0.00
2023-04-11T01:51:48.683Z,0.00
2023-04-11T01:52:48.692Z,0.00
2023-04-11T01:53:48.706Z,0.00
2023-04-11T01:54:48.720Z,0.00
2023-04-11T01:55:48.743Z,0.00
2023-04-11T01:56:48.756Z,0.00
2023-04-11T01:57:48.760Z,0.00
2023-04-11T01:58:48.819Z,0.00
2023-04-11T01:59:48.801Z,0.00
2023-04-11T02:00:48.806Z,0.00
2023-04-11T02:01:48.886Z,0.00
2023-04-11T02:02:49.005Z,0.00
2023-04-11T02:03:48.974Z,0.00
2023-04-11T02:04:48.861Z,0.00
2023-04-11T02:05:48.878Z,0.00
2023-04-11T02:06:48.891Z,0.00
2023-04-11T02:07:48.905Z,0.00
2023-04-11T02:08:48.924Z,0.00
2023-04-11T02:09:48.936Z,0.00
2023-04-11T02:10:48.966Z,0.00
2023-04-11T02:11:48.975Z,0.00
2023-04-11T02:12:48.988Z,0.00
2023-04-11T02:13:49.028Z,0.00
2023-04-11T02:14:49.010Z,0.00
2023-04-11T02:15:49.088Z,0.00
2023-04-11T02:16:49.043Z,0.00
2023-04-11T02:17:49.064Z,0.00
2023-04-11T02:18:49.067Z,0.00
2023-04-11T02:19:49.081Z,0.00
2023-04-11T02:20:49.095Z,0.00
2023-04-11T02:21:49.112Z,0.00
2023-04-11T02:22:49.126Z,0.00
2023-04-11T02:23:49.143Z,0.00
2023-04-11T02:24:49.154Z,0.00
2023-04-11T02:25:49.167Z,0.00
2023-04-11T02:26:49.185Z,0.00
2023-04-11T02:27:49.202Z,0.00
2023-04-11T02:28:49.221Z,0.00
2023-04-11T02:29:49.229Z,0.00
2023-04-11T02:30:49.262Z,0.00
2023-04-11T02:31:49.412Z,0.00
2023-04-11T02:32:49.326Z,0.00
2023-04-11T02:33:49.286Z,0.00
2023-04-11T02:34:49.302Z,0.00
2023-04-11T02:35:49.333Z,0.00
2023-04-11T02:36:49.340Z,0.00
2023-04-11T02:37:49.342Z,0.00
2023-04-11T02:38:49.357Z,0.00
2023-04-11T02:39:49.371Z,0.00
2023-04-11T02:40:49.394Z,0.00
2023-04-11T02:41:49.401Z,0.00
2023-04-11T02:42:49.415Z,0.00
2023-04-11T02:43:49.430Z,0.00
2023-04-11T02:44:49.450Z,0.00
2023-04-11T02:45:49.826Z,0.00
2023-04-11T02:46:49.532Z,0.00
2023-04-11T02:47:49.544Z,0.00
2023-04-11T02:48:49.508Z,0.00
2023-04-11T02:49:49.519Z,0.00
2023-04-11T02:50:49.533Z,0.00
2023-04-11T02:51:49.549Z,0.00
2023-04-11T02:52:49.599Z,0.00
2023-04-11T02:53:49.576Z,0.00
2023-04-11T02:54:49.593Z,0.00
2023-04-11T02:55:49.618Z,0.00
2023-04-11T02:56:49.621Z,0.00
2023-04-11T02:57:49.666Z,0.00
2023-04-11T02:58:49.651Z,0.00
2023-04-11T02:59:49.664Z,0.00
2023-04-11T03:00:49.686Z,0.00
2023-04-11T03:01:49.805Z,0.00
2023-04-11T03:02:49.814Z,0.00
2023-04-11T03:03:49.740Z,0.00
2023-04-11T03:04:49.736Z,0.00
2023-04-11T03:05:49.748Z,0.00
2023-04-11T03:06:49.784Z,0.00
2023-04-11T03:07:49.776Z,0.00
2023-04-11T03:08:49.791Z,0.00
2023-04-11T03:09:49.809Z,0.00
2023-04-11T03:10:49.832Z,0.00
2023-04-11T03:11:49.844Z,0.00
2023-04-11T03:12:49.854Z,0.00
2023-04-11T03:13:49.866Z,0.00
2023-04-11T03:14:49.880Z,0.00
2023-04-11T03:15:49.906Z,0.00
2023-04-11T03:16:49.908Z,0.00
2023-04-11T03:17:49.943Z,0.00
2023-04-11T03:18:49.956Z,0.00
2023-04-11T03:19:49.952Z,0.00
2023-04-11T03:20:49.968Z,0.00
2023-04-11T03:21:49.981Z,0.00
2023-04-11T03:22:49.997Z,0.00
2023-04-11T03:23:50.012Z,0.00
2023-04-11T03:24:50.036Z,0.00
2023-04-11T03:25:50.041Z,0.00
2023-04-11T03:26:50.060Z,0.00
2023-04-11T03:27:50.073Z,0.00
2023-04-11T03:28:50.085Z,0.00
2023-04-11T03:29:50.113Z,0.00
2023-04-11T03:30:50.118Z,0.00
2023-04-11T03:31:50.184Z,0.00
2023-04-11T03:32:50.239Z,0.00
2023-04-11T03:33:50.168Z,0.00
2023-04-11T03:34:50.179Z,0.00
2023-04-11T03:35:50.213Z,0.00
2023-04-11T03:36:50.207Z,0.00
2023-04-11T03:37:50.250Z,0.00
2023-04-11T03:38:50.235Z,0.00
2023-04-11T03:39:50.250Z,0.00
2023-04-11T03:40:50.263Z,0.00
2023-04-11T03:41:50.281Z,0.00
2023-04-11T03:42:50.294Z,0.00
2023-04-11T03:43:50.307Z,0.00
2023-04-11T03:44:50.333Z,0.00
2023-04-11T03:45:50.336Z,0.00
2023-04-11T03:46:50.389Z,0.00
2023-04-11T03:47:50.409Z,0.00
2023-04-11T03:48:50.381Z,0.00
2023-04-11T03:49:50.399Z,0.00
2023-04-11T03:50:50.414Z,0.00
2023-04-11T03:51:50.425Z,0.00
2023-04-11T03:52:50.448Z,0.00
2023-04-11T03:53:50.456Z,0.00
2023-04-11T03:54:50.472Z,0.00
2023-04-11T03:55:50.483Z,0.00
2023-04-11T03:56:50.499Z,0.00
2023-04-11T03:57:50.513Z,0.00
2023-04-11T03:58:50.530Z,0.00
2023-04-11T03:59:50.543Z,0.00
2023-04-11T04:00:50.558Z,0.00
2023-04-11T04:01:50.638Z,0.00
2023-04-11T04:02:50.742Z,0.00
2023-04-11T04:03:50.859Z,0.00
2023-04-11T04:04:50.715Z,0.00
2023-04-11T04:05:50.627Z,0.00
2023-04-11T04:06:50.644Z,0.00
2023-04-11T04:07:50.657Z,0.00
2023-04-11T04:08:50.672Z,0.00
2023-04-11T04:09:50.687Z,0.00
2023-04-11T04:10:50.701Z,0.00
2023-04-11T04:11:50.718Z,0.00
2023-04-11T04:12:50.733Z,0.00
2023-04-11T04:13:50.748Z,0.00
2023-04-11T04:14:50.759Z,0.00
2023-04-11T04:15:50.773Z,0.00
2023-04-11T04:16:50.855Z,0.00
2023-04-11T04:17:50.848Z,0.00
2023-04-11T04:18:51.102Z,0.00
2023-04-11T04:19:50.835Z,0.00
2023-04-11T04:20:50.844Z,0.00
2023-04-11T04:21:50.861Z,0.00
2023-04-11T04:22:50.876Z,0.00
2023-04-11T04:23:50.889Z,0.00
2023-04-11T04:24:50.903Z,0.00
2023-04-11T04:25:50.952Z,0.00
2023-04-11T04:26:50.931Z,0.00
2023-04-11T04:27:50.951Z,0.00
2023-04-11T04:28:50.959Z,0.00
2023-04-11T04:29:53.263Z,0.00
2023-04-11T04:30:50.990Z,0.00
2023-04-11T04:31:51.051Z,0.00
2023-04-11T04:32:51.060Z,0.00
2023-04-11T04:33:51.033Z,0.00
2023-04-11T04:34:51.046Z,0.00
2023-04-11T04:35:51.077Z,0.00
2023-04-11T04:36:51.079Z,5.63
2023-04-11T04:37:51.089Z,5.63
2023-04-11T04:38:51.102Z,5.63
2023-04-11T04:39:51.130Z,5.63
2023-04-11T04:40:51.138Z,5.63
2023-04-11T04:41:51.142Z,5.63
2023-04-11T04:42:51.159Z,5.63
2023-04-11T04:43:51.169Z,11.25
2023-04-11T04:44:51.199Z,11.25
2023-04-11T04:45:51.259Z,11.25
2023-04-11T04:46:51.215Z,11.25
2023-04-11T04:47:51.304Z,11.25
2023-04-11T04:48:51.237Z,11.25
2023-04-11T04:49:51.247Z,11.25
2023-04-11T04:50:51.263Z,5.63
2023-04-11T04:51:51.279Z,5.63
2023-04-11T04:52:51.295Z,5.63
2023-04-11T04:53:51.304Z,5.63
2023-04-11T04:54:51.316Z,5.63
2023-04-11T04:55:51.351Z,5.63
2023-04-11T04:56:51.342Z,5.63
2023-04-11T04:57:51.355Z,5.63
2023-04-11T04:58:51.370Z,5.63
2023-04-11T04:59:51.381Z,5.63
2023-04-11T05:00:51.442Z,5.63
2023-04-11T05:01:51.541Z,5.63
2023-04-11T05:02:51.484Z,5.63
2023-04-11T05:03:51.540Z,11.25
2023-04-11T05:04:51.450Z,5.63
2023-04-11T05:05:51.459Z,5.63
2023-04-11T05:06:51.478Z,5.63
2023-04-11T05:07:51.486Z,5.63
2023-04-11T05:08:51.500Z,5.63
2023-04-11T05:09:51.514Z,11.25
2023-04-11T05:10:51.528Z,11.25
2023-04-11T05:11:51.536Z,11.25
2023-04-11T05:12:51.549Z,11.25
2023-04-11T05:13:51.563Z,11.25
2023-04-11T05:14:51.578Z,11.25
2023-04-11T05:15:51.607Z,11.25
2023-04-11T05:16:51.638Z,16.88
2023-04-11T05:17:51.667Z,22.50
2023-04-11T05:18:51.631Z,22.50
2023-04-11T05:19:51.661Z,22.50
2023-04-11T05:20:51.660Z,22.50
2023-04-11T05:21:51.675Z,28.13
2023-04-11T05:22:51.813Z,28.13
2023-04-11T05:23:51.692Z,33.75
2023-04-11T05:24:51.711Z,33.75
2023-04-11T05:25:51.723Z,39.38
2023-04-11T05:26:51.735Z,45.00
2023-04-11T05:27:51.766Z,45.00
2023-04-11T05:28:51.761Z,50.63
2023-04-11T05:29:51.771Z,50.63
2023-04-11T05:30:51.863Z,45.00
2023-04-11T05:31:51.801Z,45.00
2023-04-11T05:32:51.879Z,39.38
2023-04-11T05:33:51.825Z,33.75
2023-04-11T05:34:51.838Z,33.75
2023-04-11T05:35:51.884Z,33.75
2023-04-11T05:36:51.868Z,33.75
2023-04-11T05:37:51.890Z,33.75
2023-04-11T05:38:51.948Z,39.38
2023-04-11T05:39:51.905Z,45.00
2023-04-11T05:40:51.918Z,56.25
2023-04-11T05:41:51.942Z,61.88
2023-04-11T05:42:51.942Z,61.88
2023-04-11T05:43:51.956Z,56.25
2023-04-11T05:44:51.975Z,33.75
2023-04-11T05:45:52.044Z,28.13
2023-04-11T05:46:51.996Z,33.75
2023-04-11T05:47:52.038Z,33.75
2023-04-11T05:48:52.033Z,39.38
2023-04-11T05:49:52.038Z,50.63
2023-04-11T05:50:52.049Z,67.50
2023-04-11T05:51:52.061Z,84.38
2023-04-11T05:52:52.081Z,95.63
2023-04-11T05:53:52.086Z,95.63
2023-04-11T05:54:52.106Z,106.88
2023-04-11T05:55:52.118Z,123.75
2023-04-11T05:56:52.130Z,129.38
2023-04-11T05:57:52.136Z,129.38
2023-04-11T05:58:52.153Z,135.00
2023-04-11T05:59:52.201Z,135.00
2023-04-11T06:00:52.180Z,146.25
2023-04-11T06:01:52.218Z,163.13
2023-04-11T06:02:52.289Z,185.63
2023-04-11T06:03:52.331Z,196.88
2023-04-11T06:04:52.257Z,208.13
2023-04-11T06:05:52.251Z,219.38
2023-04-11T06:06:52.255Z,230.63
2023-04-11T06:07:52.268Z,247.50
2023-04-11T06:08:52.280Z,264.38
2023-04-11T06:09:52.296Z,281.25
2023-04-11T06:10:52.338Z,309.38
2023-04-11T06:11:52.330Z,331.88
2023-04-11T06:12:52.350Z,354.38
2023-04-11T06:13:52.351Z,348.75
2023-04-11T06:14:52.359Z,343.13
2023-04-11T06:15:52.408Z,331.88
2023-04-11T06:16:52.389Z,320.63
2023-04-11T06:17:52.492Z,315.00
2023-04-11T06:18:52.433Z,303.75
2023-04-11T06:19:52.432Z,275.63
2023-04-11T06:20:52.442Z,241.88
2023-04-11T06:21:52.457Z,208.13
2023-04-11T06:22:52.488Z,185.63
2023-04-11T06:23:52.485Z,174.38
2023-04-11T06:24:52.496Z,168.75
2023-04-11T06:25:52.510Z,163.13
2023-04-11T06:26:52.523Z,157.50
2023-04-11T06:27:52.535Z,140.63
2023-04-11T06:28:52.549Z,135.00
2023-04-11T06:29:52.563Z,129.38
2023-04-11T06:30:52.629Z,129.38
2023-04-11T06:31:52.590Z,129.38
2023-04-11T06:32:52.711Z,129.38
2023-04-11T06:33:52.622Z,118.13
2023-04-11T06:34:52.636Z,112.50
2023-04-11T06:35:52.722Z,106.88
2023-04-11T06:36:52.663Z,112.50
2023-04-11T06:37:52.761Z,112.50
2023-04-11T06:38:52.704Z,112.50
2023-04-11T06:39:52.735Z,112.50
2023-04-11T06:40:52.731Z,112.50
2023-04-11T06:41:52.754Z,112.50
2023-04-11T06:42:52.746Z,118.13
2023-04-11T06:43:52.757Z,129.38
2023-04-11T06:44:52.776Z,151.88
2023-04-11T06:45:52.808Z,168.75
2023-04-11T06:46:52.881Z,191.25
2023-04-11T06:47:52.896Z,202.50
2023-04-11T06:48:52.830Z,208.13
2023-04-11T06:49:52.850Z,208.13
2023-04-11T06:50:52.857Z,202.50
2023-04-11T06:51:52.868Z,202.50
2023-04-11T06:52:52.886Z,196.88
2023-04-11T06:53:52.895Z,196.88
2023-04-11T06:54:52.912Z,202.50
2023-04-11T06:55:52.926Z,213.75
2023-04-11T06:56:52.942Z,253.13
2023-04-11T06:57:52.951Z,298.13
2023-04-11T06:58:52.964Z,315.00
2023-04-11T06:59:52.984Z,309.38
2023-04-11T07:00:53.017Z,281.25
2023-04-11T07:01:53.074Z,270.00
2023-04-11T07:02:53.299Z,258.75
2023-04-11T07:03:53.228Z,275.63
2023-04-11T07:04:53.104Z,303.75
2023-04-11T07:05:53.063Z,331.88
2023-04-11T07:06:53.084Z,360.00
2023-04-11T07:07:53.098Z,371.25
2023-04-11T07:08:53.119Z,360.00
2023-04-11T07:09:53.121Z,382.50
2023-04-11T07:10:53.134Z,382.50
2023-04-11T07:11:53.147Z,348.75
2023-04-11T07:12:53.160Z,298.13
2023-04-11T07:13:53.398Z,275.63
2023-04-11T07:14:53.191Z,270.00
2023-04-11T07:15:53.213Z,270.00
2023-04-11T07:16:53.227Z,241.88
2023-04-11T07:17:53.265Z,241.88
2023-04-11T07:18:53.264Z,247.50
2023-04-11T07:19:53.261Z,281.25
2023-04-11T07:20:53.276Z,320.63
2023-04-11T07:21:53.295Z,320.63
2023-04-11T07:22:53.304Z,315.00
2023-04-11T07:23:53.475Z,320.63
2023-04-11T07:24:53.337Z,320.63
2023-04-11T07:25:53.358Z,303.75
2023-04-11T07:26:53.375Z,275.63
2023-04-11T07:27:53.384Z,253.13
2023-04-11T07:28:53.393Z,230.63
2023-04-11T07:29:53.418Z,213.75
2023-04-11T07:30:53.431Z,202.50
2023-04-11T07:31:53.553Z,208.13
2023-04-11T07:32:53.542Z,230.63
2023-04-11T07:33:53.528Z,270.00
2023-04-11T07:34:53.488Z,303.75
2023-04-11T07:35:53.525Z,331.88
2023-04-11T07:36:53.509Z,337.50
2023-04-11T07:37:53.528Z,331.88
2023-04-11T07:38:53.557Z,320.63
2023-04-11T07:39:53.552Z,331.88
2023-04-11T07:40:53.567Z,393.75
2023-04-11T07:41:53.582Z,438.75
2023-04-11T07:42:53.597Z,427.50
2023-04-11T07:43:53.825Z,444.38
2023-04-11T07:44:53.627Z,450.00
2023-04-11T07:45:53.688Z,438.75
2023-04-11T07:46:53.670Z,388.13
2023-04-11T07:47:53.685Z,354.38
2023-04-11T07:48:53.684Z,320.63
2023-04-11T07:49:53.701Z,309.38
2023-04-11T07:50:53.717Z,320.63
2023-04-11T07:51:53.732Z,275.63
2023-04-11T07:52:53.742Z,225.00
2023-04-11T07:53:54.001Z,196.88
2023-04-11T07:54:53.775Z,174.38
2023-04-11T07:55:53.806Z,168.75
2023-04-11T07:56:53.805Z,185.63
2023-04-11T07:57:53.822Z,191.25
2023-04-11T07:58:53.835Z,185.63
2023-04-11T07:59:53.865Z,236.25
2023-04-11T08:00:53.881Z,275.63
2023-04-11T08:01:53.934Z,292.50
2023-04-11T08:02:54.148Z,320.63
2023-04-11T08:03:54.175Z,348.75
2023-04-11T08:04:54.054Z,371.25
2023-04-11T08:05:53.939Z,382.50
2023-04-11T08:06:53.956Z,393.75
2023-04-11T08:07:53.973Z,371.25
2023-04-11T08:08:53.989Z,331.88
2023-04-11T08:09:54.009Z,225.00
2023-04-11T08:10:54.024Z,180.00
2023-04-11T08:11:54.038Z,236.25
2023-04-11T08:12:54.048Z,258.75
2023-04-11T08:13:54.131Z,163.13
2023-04-11T08:14:54.087Z,90.00
2023-04-11T08:15:54.094Z,61.88
2023-04-11T08:16:54.162Z,61.88
2023-04-11T08:17:54.202Z,45.00
2023-04-11T08:18:54.145Z,33.75
2023-04-11T08:19:54.156Z,45.00
2023-04-11T08:20:54.174Z,61.88
2023-04-11T08:21:54.189Z,106.88
2023-04-11T08:22:54.204Z,135.00
2023-04-11T08:23:54.321Z,129.38
2023-04-11T08:24:54.233Z,129.38
2023-04-11T08:25:54.254Z,146.25
2023-04-11T08:26:54.267Z,163.13
2023-04-11T08:27:54.280Z,208.13
2023-04-11T08:28:54.307Z,247.50
2023-04-11T08:29:54.309Z,298.13
2023-04-11T08:30:54.356Z,348.75
2023-04-11T08:31:54.334Z,382.50
2023-04-11T08:32:54.378Z,354.38
2023-04-11T08:33:54.528Z,320.63
2023-04-11T08:34:54.381Z,275.63
2023-04-11T08:35:54.448Z,230.63
2023-04-11T08:36:54.411Z,196.88
2023-04-11T08:37:54.423Z,185.63
2023-04-11T08:38:54.440Z,191.25
2023-04-11T08:39:54.461Z,196.88
2023-04-11T08:40:54.469Z,185.63
2023-04-11T08:41:54.484Z,174.38
2023-04-11T08:42:54.500Z,180.00
2023-04-11T08:43:54.723Z,208.13
2023-04-11T08:44:54.523Z,253.13
2023-04-11T08:45:54.572Z,286.88
2023-04-11T08:46:54.555Z,309.38
2023-04-11T08:47:54.617Z,331.88
2023-04-11T08:48:54.583Z,348.75
2023-04-11T08:49:54.598Z,371.25
2023-04-11T08:50:54.613Z,405.00
2023-04-11T08:51:54.633Z,393.75
2023-04-11T08:52:54.655Z,354.38
2023-04-11T08:53:54.894Z,354.38
2023-04-11T08:54:54.678Z,388.13
2023-04-11T08:55:54.691Z,433.13
2023-04-11T08:56:54.701Z,472.50
2023-04-11T08:57:54.712Z,466.88
2023-04-11T08:58:54.734Z,438.75
2023-04-11T08:59:54.740Z,405.00
2023-04-11T09:00:54.770Z,393.75
2023-04-11T09:01:54.851Z,410.63
2023-04-11T09:02:54.843Z,427.50
2023-04-11T09:03:54.929Z,438.75
2023-04-11T09:04:54.846Z,461.25
2023-04-11T09:05:54.828Z,478.13
2023-04-11T09:06:54.844Z,495.00
2023-04-11T09:07:54.862Z,511.88
2023-04-11T09:08:54.885Z,528.75
2023-04-11T09:09:54.907Z,551.25
2023-04-11T09:10:54.906Z,596.25
2023-04-11T09:11:54.941Z,658.13
2023-04-11T09:12:54.943Z,714.38
2023-04-11T09:13:55.101Z,748.13
2023-04-11T09:14:54.976Z,759.38
2023-04-11T09:15:55.232Z,770.63
2023-04-11T09:16:55.004Z,776.25
2023-04-11T09:17:55.082Z,793.13
2023-04-11T09:18:55.120Z,804.38
2023-04-11T09:19:55.053Z,798.75
2023-04-11T09:20:55.062Z,759.38
2023-04-11T09:21:55.076Z,691.88
2023-04-11T09:22:55.095Z,646.88
2023-04-11T09:23:55.401Z,658.13
2023-04-11T09:24:55.127Z,725.63
2023-04-11T09:25:55.146Z,798.75
2023-04-11T09:26:55.161Z,838.13
2023-04-11T09:27:55.184Z,826.88
2023-04-11T09:28:55.344Z,821.25
2023-04-11T09:29:55.214Z,849.38
2023-04-11T09:30:55.275Z,883.13
2023-04-11T09:31:55.246Z,900.00
2023-04-11T09:32:55.281Z,900.00
2023-04-11T09:33:55.518Z,894.38
2023-04-11T09:34:55.301Z,883.13
2023-04-11T09:35:55.340Z,888.75
2023-04-11T09:36:55.333Z,883.13
2023-04-11T09:37:55.357Z,877.50
2023-04-11T09:38:55.369Z,871.88
2023-04-11T09:39:55.386Z,860.63
2023-04-11T09:40:55.402Z,849.38
2023-04-11T09:41:55.421Z,838.13
2023-04-11T09:42:55.440Z,843.75
2023-04-11T09:43:55.887Z,849.38
2023-04-11T09:44:55.480Z,883.13
2023-04-11T09:45:55.494Z,888.75
2023-04-11T09:46:55.593Z,894.38
2023-04-11T09:47:55.552Z,866.25
2023-04-11T09:48:55.562Z,843.75
2023-04-11T09:49:55.568Z,877.50
2023-04-11T09:50:58.729Z,939.38
2023-04-11T09:51:55.606Z,883.13
2023-04-11T09:52:57.667Z,849.38
2023-04-11T09:53:55.975Z,826.88
2023-04-11T09:54:55.662Z,821.25
2023-04-11T09:55:55.676Z,821.25
2023-04-11T09:56:55.700Z,770.63
2023-04-11T09:57:55.715Z,742.50
2023-04-11T09:58:55.911Z,720.00
2023-04-11T09:59:55.749Z,703.13
2023-04-11T10:00:55.768Z,720.00
2023-04-11T10:01:55.870Z,753.75
2023-04-11T10:02:55.882Z,708.75
2023-04-11T10:03:56.471Z,753.75
2023-04-11T10:04:55.866Z,748.13
2023-04-11T10:05:55.874Z,776.25
2023-04-11T10:06:55.880Z,843.75
2023-04-11T10:07:55.900Z,810.00
2023-04-11T10:08:56.115Z,714.38
2023-04-11T10:09:55.937Z,714.38
2023-04-11T10:10:55.953Z,748.13
2023-04-11T10:11:55.978Z,725.63
2023-04-11T10:12:55.991Z,669.38
2023-04-11T10:13:56.182Z,731.25
2023-04-11T10:14:56.029Z,714.38
2023-04-11T10:15:56.063Z,714.38
2023-04-11T10:16:56.065Z,585.00
2023-04-11T10:17:56.273Z,601.88
2023-04-11T10:18:56.110Z,646.88
2023-04-11T10:19:56.329Z,596.25
2023-04-11T10:20:56.142Z,630.00
2023-04-11T10:21:56.158Z,787.50
2023-04-11T10:22:56.177Z,680.63
2023-04-11T10:23:56.367Z,590.63
2023-04-11T10:24:56.212Z,585.00
2023-04-11T10:25:56.251Z,765.00
2023-04-11T10:26:56.268Z,1305.00
2023-04-11T10:27:56.270Z,680.63
2023-04-11T10:28:56.294Z,663.75
2023-04-11T10:29:56.305Z,770.63
2023-04-11T10:30:56.330Z,630.00
2023-04-11T10:31:56.396Z,652.50
2023-04-11T10:32:56.440Z,1822.50
2023-04-11T10:33:56.472Z,843.75
2023-04-11T10:34:56.411Z,776.25
2023-04-11T10:35:56.432Z,691.88
2023-04-11T10:36:56.439Z,680.63
2023-04-11T10:37:56.457Z,2193.75
2023-04-11T10:38:56.480Z,1141.88
2023-04-11T10:39:56.496Z,1310.63
2023-04-11T10:40:56.520Z,725.63
2023-04-11T10:41:56.554Z,624.38
2023-04-11T10:42:56.559Z,562.50
2023-04-11T10:43:56.742Z,500.63
2023-04-11T10:44:56.594Z,438.75
2023-04-11T10:45:56.612Z,433.13
2023-04-11T10:46:56.826Z,483.75
2023-04-11T10:47:56.811Z,427.50
2023-04-11T10:48:56.668Z,365.63
2023-04-11T10:49:56.691Z,326.25
2023-04-11T10:50:56.719Z,292.50
2023-04-11T10:51:56.725Z,292.50
2023-04-11T10:52:56.751Z,309.38
2023-04-11T10:53:56.762Z,303.75
2023-04-11T10:54:56.788Z,241.88
2023-04-11T10:55:56.798Z,180.00
2023-04-11T10:56:56.831Z,168.75
2023-04-11T10:57:56.846Z,180.00
2023-04-11T10:58:56.855Z,196.88
2023-04-11T10:59:56.887Z,219.38
2023-04-11T11:00:56.909Z,258.75
2023-04-11T11:01:56.999Z,382.50
2023-04-11T11:02:56.953Z,646.88
2023-04-11T11:03:57.157Z,961.88
2023-04-11T11:04:56.977Z,2953.13
2023-04-11T11:05:56.978Z,2098.13
2023-04-11T11:06:57.513Z,933.75
2023-04-11T11:07:57.024Z,770.63
2023-04-11T11:08:57.028Z,1113.75
2023-04-11T11:09:57.039Z,3594.38
2023-04-11T11:10:57.705Z,3971.25
2023-04-11T11:11:57.075Z,4263.75
2023-04-11T11:12:57.095Z,4134.38
2023-04-11T11:13:57.244Z,4190.63
2023-04-11T11:14:57.128Z,4078.13
2023-04-11T11:15:57.154Z,3712.50
2023-04-11T11:16:57.222Z,1299.38
2023-04-11T11:17:57.211Z,973.13
2023-04-11T11:18:57.211Z,573.75
2023-04-11T11:19:57.230Z,506.25
2023-04-11T11:20:57.251Z,438.75
2023-04-11T11:21:57.271Z,382.50
2023-04-11T11:22:57.293Z,393.75
2023-04-11T11:23:57.553Z,2306.25
2023-04-11T11:24:57.347Z,1805.63
2023-04-11T11:25:57.357Z,3549.38
2023-04-11T11:26:57.391Z,3853.13
2023-04-11T11:27:57.396Z,4263.75
2023-04-11T11:28:57.471Z,4089.38
2023-04-11T11:29:57.435Z,2165.63
2023-04-11T11:30:57.477Z,1383.75
2023-04-11T11:31:57.539Z,1051.88
2023-04-11T11:32:57.531Z,939.38
2023-04-11T11:34:01.327Z,3954.38
2023-04-11T11:34:57.719Z,4173.75
2023-04-11T11:35:57.612Z,3285.00
2023-04-11T11:36:57.585Z,2075.63
2023-04-11T11:37:57.618Z,2576.25
2023-04-11T11:38:57.819Z,3931.88
2023-04-11T11:39:57.654Z,4179.38
2023-04-11T11:40:57.706Z,4005.00
2023-04-11T11:41:57.719Z,4196.25
2023-04-11T11:42:57.728Z,4342.50
2023-04-11T11:43:58.018Z,4286.25
2023-04-11T11:44:57.771Z,4511.25
2023-04-11T11:45:57.816Z,4314.38
2023-04-11T11:46:57.822Z,3217.50
2023-04-11T11:47:57.897Z,579.38
2023-04-11T11:48:58.164Z,4235.63
2023-04-11T11:49:57.892Z,4128.75
2023-04-11T11:50:57.932Z,4010.63
2023-04-11T11:51:57.941Z,646.88
2023-04-11T11:52:57.964Z,1434.38
2023-04-11T11:53:57.993Z,4331.25
2023-04-11T11:54:58.023Z,4314.38
2023-04-11T11:55:58.047Z,759.38
2023-04-11T11:56:58.071Z,781.88
2023-04-11T11:57:58.092Z,1670.63
2023-04-11T11:58:58.471Z,781.88
2023-04-11T11:59:58.150Z,686.25
2023-04-11T12:00:58.167Z,523.13
2023-04-11T12:01:58.265Z,579.38
2023-04-11T12:02:58.337Z,810.00
2023-04-11T12:03:58.675Z,1091.25
2023-04-11T12:04:58.399Z,4421.25
2023-04-11T12:05:58.432Z,4376.25
2023-04-11T12:06:58.329Z,978.75
2023-04-11T12:07:58.347Z,613.13
2023-04-11T12:08:58.359Z,528.75
2023-04-11T12:09:58.377Z,607.50
2023-04-11T12:10:58.401Z,742.50
2023-04-11T12:11:58.423Z,939.38
2023-04-11T12:12:58.448Z,3971.25
2023-04-11T12:13:58.787Z,483.75
2023-04-11T12:14:58.491Z,371.25
2023-04-11T12:15:58.529Z,523.13
2023-04-11T12:16:58.541Z,1378.13
2023-04-11T12:17:58.628Z,1006.88
2023-04-11T12:18:58.588Z,652.50
2023-04-11T12:19:58.605Z,810.00
2023-04-11T12:20:58.633Z,697.50
2023-04-11T12:21:58.646Z,770.63
2023-04-11T12:22:58.670Z,708.75
2023-04-11T12:23:58.832Z,489.38
2023-04-11T12:24:58.724Z,421.88
2023-04-11T12:25:58.734Z,742.50
2023-04-11T12:27:06.794Z,826.88
2023-04-11T12:27:58.780Z,1102.50
2023-04-11T12:28:58.861Z,1057.50
2023-04-11T12:29:58.824Z,961.88
2023-04-11T12:30:58.884Z,1006.88
2023-04-11T12:31:58.888Z,832.50
2023-04-11T12:32:58.980Z,978.75
2023-04-11T12:33:58.956Z,731.25
2023-04-11T12:34:58.917Z,618.75
2023-04-11T12:35:58.940Z,511.88
2023-04-11T12:36:58.965Z,478.13
2023-04-11T12:37:59.006Z,450.00
2023-04-11T12:38:59.141Z,433.13
2023-04-11T12:39:59.034Z,421.88
2023-04-11T12:41:19.792Z,421.88
2023-04-11T12:41:59.067Z,416.25
2023-04-11T12:42:59.085Z,416.25
2023-04-11T12:43:59.099Z,450.00
2023-04-11T12:44:59.121Z,495.00
2023-04-11T12:45:59.147Z,568.13
2023-04-11T12:46:59.253Z,736.88
2023-04-11T12:47:59.239Z,843.75